Time;durP1;ratioP1;P1;durP2;ratioP2;P2;SDS_P1;SDS_P2;PMS_P1;PMS_P2;Temp;Humidity;BMP_temperature;BMP_pressure;BME280_temperature;BME280_humidity;BME280_pressure;Samples;Min_cycle;Max_cycle;Signal;HPM_P1;HPM_P2
2023/08/07 00:02:03;;;;;;;4.43;1.45;;;21.40;1.00;;;;;;4923691;29;20512;-42
2023/08/07 00:04:30;;;;;;;5.88;0.85;;;21.40;1.00;;;;;;4911249;29;20044;-42
2023/08/07 00:06:57;;;;;;;5.60;1.23;;;21.40;1.00;;;;;;4905182;29;20045;-41
2023/08/07 00:09:24;;;;;;;5.50;1.17;;;21.40;1.00;;;;;;4916240;29;20036;-42
2023/08/07 00:11:51;;;;;;;1.77;0.68;;;21.40;1.00;;;;;;4915679;29;20040;-42
2023/08/07 00:14:18;;;;;;;4.75;0.88;;;21.40;1.00;;;;;;4925010;29;20118;-42
2023/08/07 00:16:45;;;;;;;6.10;0.80;;;21.40;1.00;;;;;;4920192;29;20311;-41
2023/08/07 00:19:11;;;;;;;5.38;1.08;;;21.40;1.00;;;;;;4921004;29;20600;-41
2023/08/07 00:21:39;;;;;;;3.35;0.77;;;21.40;1.00;;;;;;4921876;29;20060;-44
2023/08/07 00:24:06;;;;;;;5.43;1.10;;;21.40;1.00;;;;;;4920939;29;20050;-44
2023/08/07 00:26:32;;;;;;;3.63;1.02;;;21.40;1.00;;;;;;4916149;29;20055;-40
2023/08/07 00:28:59;;;;;;;4.82;1.00;;;21.40;1.00;;;;;;4914455;29;20247;-41
2023/08/07 00:31:30;;;;;;;5.93;1.15;;;21.40;1.00;;;;;;4917487;29;20041;-40
2023/08/07 00:33:59;;;;;;;2.35;0.77;;;21.30;1.00;;;;;;4919605;29;20059;-43
2023/08/07 00:36:28;;;;;;;4.47;0.90;;;21.30;1.00;;;;;;4893785;29;20224;-42
2023/08/07 00:38:55;;;;;;;1.67;0.73;;;21.30;1.00;;;;;;4907705;29;20461;-41
2023/08/07 00:41:22;;;;;;;7.53;1.27;;;21.30;1.00;;;;;;4905152;29;20044;-43
2023/08/07 00:43:49;;;;;;;3.38;1.05;;;21.30;1.00;;;;;;4897629;29;20086;-41
2023/08/07 00:46:16;;;;;;;4.15;1.35;;;21.30;1.00;;;;;;4898944;29;20044;-41
2023/08/07 00:48:44;;;;;;;3.50;1.13;;;21.30;1.00;;;;;;4905059;29;20044;-41
2023/08/07 00:51:11;;;;;;;4.45;0.82;;;21.30;1.00;;;;;;4906236;29;20094;-42
2023/08/07 00:53:39;;;;;;;3.80;0.95;;;21.30;1.00;;;;;;4916038;29;20063;-45
2023/08/07 00:56:07;;;;;;;7.00;1.02;;;21.30;1.00;;;;;;4919778;29;20128;-41
2023/08/07 00:58:34;;;;;;;8.15;1.45;;;21.30;1.00;;;;;;4903535;29;20100;-41
2023/08/07 01:01:02;;;;;;;4.00;1.38;;;21.30;1.00;;;;;;4921720;29;20396;-41
2023/08/07 01:03:29;;;;;;;4.65;1.23;;;21.30;1.00;;;;;;4921243;29;20040;-40
2023/08/07 01:05:56;;;;;;;4.47;1.05;;;21.20;1.00;;;;;;4920454;29;20040;-41
2023/08/07 01:08:24;;;;;;;4.63;1.10;;;21.20;1.00;;;;;;4903763;29;20054;-42
2023/08/07 01:11:09;;;;;;;6.05;1.10;;;21.20;1.00;;;;;;4896371;29;20044;-40
2023/08/07 01:13:43;;;;;;;6.65;1.15;;;21.20;1.00;;;;;;4920932;29;20084;-41
2023/08/07 01:16:28;;;;;;;;;;;21.20;1.00;;;;;;4920478;29;20040;-42
2023/08/07 01:18:56;;;;;;;4.85;1.90;;;21.20;1.00;;;;;;4904088;29;19961;-43
2023/08/07 01:21:23;;;;;;;7.60;2.42;;;21.20;1.00;;;;;;4889365;29;20436;-43
2023/08/07 01:23:50;;;;;;;5.65;1.38;;;21.20;1.00;;;;;;4921188;29;20479;-43
2023/08/07 01:26:21;;;;;;;8.90;1.88;;;21.20;1.00;;;;;;4892630;29;20512;-42
2023/08/07 01:29:21;;;;;;;6.47;1.60;;;21.20;1.00;;;;;;4916643;29;20123;-41
2023/08/07 01:31:51;;;;;;;7.55;1.70;;;21.20;1.00;;;;;;4895887;29;20044;-41
2023/08/07 01:34:20;;;;;;;4.50;1.20;;;21.20;1.00;;;;;;4918276;29;20083;-42
2023/08/07 01:36:49;;;;;;;8.20;1.05;;;21.10;1.00;;;;;;4919453;29;20123;-41
2023/08/07 01:39:17;;;;;;;6.22;1.40;;;21.10;1.00;;;;;;4904848;29;20104;-41
2023/08/07 01:41:45;;;;;;;7.63;2.80;;;21.20;1.00;;;;;;4889533;29;20054;-41
2023/08/07 01:44:12;;;;;;;7.22;1.55;;;21.10;1.00;;;;;;4902609;29;20045;-40
2023/08/07 01:46:39;;;;;;;5.97;1.45;;;21.10;1.00;;;;;;4890922;29;20147;-41
2023/08/07 01:49:06;;;;;;;4.68;1.25;;;21.10;1.00;;;;;;4902220;29;20055;-41
2023/08/07 01:51:33;;;;;;;3.60;1.35;;;21.10;1.00;;;;;;4898208;29;20050;-41
2023/08/07 01:54:00;;;;;;;4.38;1.38;;;21.10;1.00;;;;;;4903792;29;20044;-42
2023/08/07 01:56:27;;;;;;;5.43;1.55;;;21.10;1.00;;;;;;4898358;29;20042;-40
2023/08/07 01:58:53;;;;;;;5.28;1.17;;;21.10;1.00;;;;;;4904464;29;20563;-42
2023/08/07 02:01:20;;;;;;;5.43;1.50;;;21.10;1.00;;;;;;4895764;29;20115;-41
2023/08/07 02:03:47;;;;;;;6.03;2.05;;;21.10;1.00;;;;;;4903014;29;20485;-41
2023/08/07 02:06:14;;;;;;;5.22;1.50;;;21.10;1.00;;;;;;4906002;29;20059;-41
2023/08/07 02:08:41;;;;;;;4.10;1.17;;;21.10;1.00;;;;;;4907851;29;20440;-40
2023/08/07 02:11:08;;;;;;;5.45;1.50;;;21.10;1.00;;;;;;4924184;29;20091;-41
2023/08/07 02:13:36;;;;;;;13.82;2.90;;;21.10;1.00;;;;;;4924339;29;20412;-42
2023/08/07 02:16:03;;;;;;;5.25;2.05;;;21.00;1.00;;;;;;4905610;29;20051;-41
2023/08/07 02:18:30;;;;;;;5.30;1.73;;;21.10;1.00;;;;;;4900542;29;20048;-40
2023/08/07 02:20:57;;;;;;;7.13;1.75;;;21.00;1.00;;;;;;4906923;29;20409;-41
2023/08/07 02:23:24;;;;;;;5.50;1.10;;;21.00;1.00;;;;;;4896183;29;20104;-41
2023/08/07 02:25:53;;;;;;;4.60;1.38;;;21.00;1.00;;;;;;4900620;29;20051;-41
2023/08/07 02:28:20;;;;;;;7.78;1.83;;;21.00;1.00;;;;;;4922174;29;20052;-41
2023/08/07 02:30:48;;;;;;;6.88;0.90;;;21.00;1.00;;;;;;4912651;29;20067;-42
2023/08/07 02:33:15;;;;;;;8.30;2.00;;;21.00;1.00;;;;;;4922998;29;20081;-41
2023/08/07 02:35:44;;;;;;;6.38;1.08;;;21.00;1.00;;;;;;4906279;29;20407;-41
2023/08/07 02:38:11;;;;;;;5.07;1.00;;;21.00;1.00;;;;;;4924035;29;20063;-41
2023/08/07 02:40:38;;;;;;;4.82;1.13;;;21.00;1.00;;;;;;4906945;29;20143;-43
2023/08/07 02:43:05;;;;;;;3.22;1.45;;;21.00;1.00;;;;;;4906865;29;20048;-41
2023/08/07 02:45:33;;;;;;;3.25;1.33;;;21.00;1.00;;;;;;4882030;29;20080;-41
2023/08/07 02:48:00;;;;;;;5.38;1.55;;;21.00;1.00;;;;;;4907032;29;20048;-41
2023/08/07 02:50:32;;;;;;;9.38;1.85;;;21.00;1.00;;;;;;4896527;29;20040;-43
2023/08/07 02:53:00;;;;;;;5.43;1.60;;;21.00;1.00;;;;;;4903566;29;20052;-43
2023/08/07 02:55:27;;;;;;;4.65;1.30;;;21.00;1.00;;;;;;4912077;29;20048;-41
2023/08/07 02:57:54;;;;;;;5.97;2.13;;;21.00;1.00;;;;;;4906515;29;20048;-40
2023/08/07 03:00:21;;;;;;;3.65;1.20;;;20.90;1.00;;;;;;4906320;29;20055;-40
2023/08/07 03:02:50;;;;;;;3.30;1.20;;;20.90;1.00;;;;;;4901537;29;20137;-40
2023/08/07 03:05:17;;;;;;;8.18;1.25;;;21.00;1.00;;;;;;4905305;29;20512;-41
2023/08/07 03:07:44;;;;;;;5.53;1.75;;;20.90;1.00;;;;;;4923902;29;20032;-41
2023/08/07 03:10:11;;;;;;;7.35;1.83;;;20.90;1.00;;;;;;4916164;29;20045;-41
2023/08/07 03:12:38;;;;;;;6.45;1.30;;;20.90;1.00;;;;;;4922384;29;20044;-41
2023/08/07 03:15:06;;;;;;;7.78;2.50;;;20.90;1.00;;;;;;4894063;29;20044;-41
2023/08/07 03:17:33;;;;;;;7.00;1.45;;;20.90;1.00;;;;;;4905032;29;20036;-43
2023/08/07 03:20:00;;;;;;;2.38;1.17;;;20.90;1.00;;;;;;4899130;29;20060;-41
2023/08/07 03:22:27;;;;;;;5.45;1.25;;;20.90;1.00;;;;;;4922822;29;20048;-42
2023/08/07 03:24:54;;;;;;;6.78;1.65;;;20.90;1.00;;;;;;4900899;29;20040;-45
2023/08/07 03:27:21;;;;;;;5.38;1.65;;;20.90;1.00;;;;;;4906295;29;20075;-41
2023/08/07 03:29:48;;;;;;;4.57;1.30;;;20.80;1.00;;;;;;4918235;29;20037;-42
2023/08/07 03:32:15;;;;;;;5.35;1.80;;;20.80;1.00;;;;;;4904380;29;20052;-42
2023/08/07 03:34:42;;;;;;;9.25;1.77;;;20.80;1.00;;;;;;4913125;29;20124;-41
2023/08/07 03:37:09;;;;;;;2.70;0.95;;;20.80;1.00;;;;;;4896203;29;20052;-41
2023/08/07 03:39:36;;;;;;;5.43;1.98;;;20.80;1.00;;;;;;4913811;29;20115;-43
2023/08/07 03:42:03;;;;;;;5.72;1.50;;;20.80;1.00;;;;;;4902360;29;20548;-42
2023/08/07 03:44:33;;;;;;;7.22;1.40;;;20.80;1.00;;;;;;4894824;29;20052;-42
2023/08/07 03:46:59;;;;;;;7.32;1.40;;;20.80;1.00;;;;;;4913148;29;20043;-46
2023/08/07 03:49:26;;;;;;;6.00;1.48;;;20.80;1.00;;;;;;4895916;29;20104;-41
2023/08/07 03:51:54;;;;;;;9.38;1.67;;;20.80;1.00;;;;;;4903437;29;20096;-42
2023/08/07 03:54:20;;;;;;;6.05;1.60;;;20.80;1.00;;;;;;4905244;29;20048;-42
2023/08/07 03:56:49;;;;;;;5.55;1.60;;;20.80;1.00;;;;;;4903403;29;20044;-42
2023/08/07 03:59:17;;;;;;;6.82;1.63;;;20.80;1.00;;;;;;4904361;29;20048;-42
2023/08/07 04:01:44;;;;;;;5.90;1.90;;;20.80;1.00;;;;;;4894881;29;20052;-41
2023/08/07 04:04:11;;;;;;;4.05;1.38;;;20.80;1.00;;;;;;4886953;29;20497;-41
2023/08/07 04:06:39;;;;;;;7.82;1.90;;;20.80;1.00;;;;;;4901638;29;20040;-42
2023/08/07 04:09:05;;;;;;;5.22;1.70;;;20.80;1.00;;;;;;4915492;29;20051;-42
2023/08/07 04:11:33;;;;;;;7.47;1.77;;;20.80;1.00;;;;;;4884501;29;20051;-41
2023/08/07 04:14:00;;;;;;;9.75;2.15;;;20.80;1.00;;;;;;4885591;29;20112;-41
2023/08/07 04:16:27;;;;;;;6.28;1.83;;;20.70;1.00;;;;;;4895430;29;20048;-41
2023/08/07 04:18:53;;;;;;;9.18;2.13;;;20.70;1.00;;;;;;4916073;29;20075;-41
2023/08/07 04:21:20;;;;;;;9.45;2.30;;;20.70;1.00;;;;;;4898811;29;20052;-48
2023/08/07 04:23:48;;;;;;;11.70;1.95;;;20.70;1.00;;;;;;4901328;29;20032;-41
2023/08/07 04:26:15;;;;;;;13.88;2.50;;;20.70;1.00;;;;;;4893308;29;20088;-41
2023/08/07 04:28:42;;;;;;;13.68;2.83;;;20.70;1.00;;;;;;4901830;29;20206;-41
2023/08/07 04:31:09;;;;;;;10.65;2.95;;;20.70;1.00;;;;;;4919787;29;20039;-42
2023/08/07 04:33:36;;;;;;;7.82;2.67;;;20.70;1.00;;;;;;4916090;29;20064;-41
2023/08/07 04:36:03;;;;;;;11.60;1.90;;;20.70;1.00;;;;;;4923721;29;20464;-41
2023/08/07 04:38:30;;;;;;;7.22;1.95;;;20.70;1.00;;;;;;4924101;29;20068;-42
2023/08/07 04:40:56;;;;;;;11.82;2.53;;;20.70;1.00;;;;;;4923381;29;20040;-41
2023/08/07 04:43:23;;;;;;;13.35;2.30;;;20.60;1.00;;;;;;4923055;29;20100;-41
2023/08/07 04:45:50;;;;;;;12.07;2.42;;;20.70;1.00;;;;;;4916137;29;20044;-41
2023/08/07 04:48:17;;;;;;;9.95;2.40;;;20.60;1.00;;;;;;4898974;29;20048;-40
2023/08/07 04:50:45;;;;;;;7.22;1.60;;;20.60;1.00;;;;;;4883179;29;20058;-40
2023/08/07 04:53:11;;;;;;;9.38;2.33;;;20.60;1.00;;;;;;4920142;29;20040;-42
2023/08/07 04:55:38;;;;;;;6.15;1.63;;;20.70;1.00;;;;;;4909129;29;20044;-42
2023/08/07 04:58:05;;;;;;;6.78;1.67;;;20.60;1.00;;;;;;4917480;29;20060;-43
2023/08/07 05:00:32;;;;;;;4.78;1.85;;;20.60;1.00;;;;;;4919638;29;20051;-44
2023/08/07 05:02:59;;;;;;;9.38;2.10;;;20.60;1.00;;;;;;4917726;29;20047;-42
2023/08/07 05:05:27;;;;;;;10.32;3.10;;;20.60;1.00;;;;;;4914679;29;20139;-41
2023/08/07 05:07:55;;;;;;;5.07;1.45;;;20.60;1.00;;;;;;4910317;29;20132;-41
2023/08/07 05:10:21;;;;;;;14.38;2.15;;;20.60;1.00;;;;;;4912784;29;20051;-42
2023/08/07 05:12:54;;;;;;;5.03;1.33;;;20.60;1.00;;;;;;4922286;29;20032;-41
2023/08/07 05:15:22;;;;;;;7.25;2.00;;;20.60;1.00;;;;;;4923028;29;20385;-43
2023/08/07 05:17:50;;;;;;;6.85;1.40;;;20.60;1.00;;;;;;4906698;29;20067;-42
2023/08/07 05:20:17;;;;;;;5.22;1.55;;;20.60;1.00;;;;;;4923617;29;20044;-42
2023/08/07 05:22:44;;;;;;;10.43;1.95;;;20.60;1.00;;;;;;4923346;29;20040;-44
2023/08/07 05:25:15;;;;;;;11.15;2.17;;;20.60;1.00;;;;;;4921746;29;20087;-42
2023/08/07 05:27:43;;;;;;;6.07;2.25;;;20.60;1.00;;;;;;4915219;29;20067;-42
2023/08/07 05:30:11;;;;;;;5.18;2.53;;;20.60;1.00;;;;;;4921959;29;20108;-41
2023/08/07 05:32:37;;;;;;;7.95;2.42;;;20.60;1.00;;;;;;4899100;29;20048;-42
2023/08/07 05:35:06;;;;;;;5.72;1.85;;;20.60;1.00;;;;;;4923104;29;20058;-42
2023/08/07 05:37:34;;;;;;;4.80;2.15;;;20.60;1.00;;;;;;4918286;29;20052;-41
2023/08/07 05:40:01;;;;;;;6.63;2.17;;;20.60;1.00;;;;;;4926320;29;20395;-42
2023/08/07 05:42:28;;;;;;;5.45;1.80;;;20.50;1.00;;;;;;4918470;29;20056;-41
2023/08/07 05:44:55;;;;;;;3.40;1.02;;;20.50;1.00;;;;;;4921266;29;20044;-42
2023/08/07 05:47:22;;;;;;;6.15;1.55;;;20.50;1.00;;;;;;4917434;29;20076;-42
2023/08/07 05:49:49;;;;;;;3.35;1.25;;;20.60;1.00;;;;;;4926992;29;20107;-42
2023/08/07 05:52:17;;;;;;;6.78;1.83;;;20.50;1.00;;;;;;4920753;29;20048;-42
2023/08/07 05:54:44;;;;;;;5.43;1.83;;;20.50;1.00;;;;;;4902760;29;20150;-43
2023/08/07 05:57:11;;;;;;;4.60;1.70;;;20.50;1.00;;;;;;4917661;29;20059;-41
2023/08/07 05:59:40;;;;;;;5.93;1.98;;;20.60;1.00;;;;;;4923794;29;20052;-41
2023/08/07 06:02:06;;;;;;;5.80;1.55;;;20.50;1.00;;;;;;4925688;29;20048;-42
2023/08/07 06:04:33;;;;;;;5.03;1.90;;;20.60;1.00;;;;;;4917400;29;20436;-42
2023/08/07 06:07:00;;;;;;;7.05;1.83;;;20.60;1.00;;;;;;4909182;29;20052;-42
2023/08/07 06:09:28;;;;;;;5.03;2.53;;;20.60;1.00;;;;;;4916628;29;20076;-42
2023/08/07 06:11:54;;;;;;;4.75;1.38;;;20.60;1.00;;;;;;4914798;29;20092;-41
2023/08/07 06:14:22;;;;;;;4.65;1.55;;;20.60;1.00;;;;;;4889627;29;20048;-42
2023/08/07 06:16:49;;;;;;;7.60;1.50;;;20.60;1.00;;;;;;4910208;29;20064;-42
2023/08/07 06:19:16;;;;;;;6.13;2.08;;;20.60;1.00;;;;;;4909668;29;20453;-41
2023/08/07 06:21:57;;;;;;;6.07;2.13;;;20.50;1.00;;;;;;4912780;29;20079;-42
2023/08/07 06:24:25;;;;;;;4.95;1.40;;;20.50;1.00;;;;;;4917597;29;20048;-41
2023/08/07 06:26:52;;;;;;;4.60;1.63;;;20.50;1.00;;;;;;4926347;29;20428;-45
2023/08/07 06:29:19;;;;;;;6.60;1.67;;;20.50;1.00;;;;;;4924541;29;20040;-43
2023/08/07 06:31:46;;;;;;;7.00;2.38;;;20.60;1.00;;;;;;4917388;29;20048;-41
2023/08/07 06:34:13;;;;;;;5.47;1.48;;;20.60;1.00;;;;;;4925736;29;20136;-41
2023/08/07 06:36:40;;;;;;;3.50;1.30;;;20.60;1.00;;;;;;4917046;29;20100;-42
2023/08/07 06:39:06;;;;;;;3.42;1.88;;;20.60;1.00;;;;;;4925288;29;20080;-42
2023/08/07 06:41:33;;;;;;;5.22;2.17;;;20.60;1.00;;;;;;4916683;29;20079;-42
2023/08/07 06:44:00;;;;;;;6.47;1.35;;;20.60;1.00;;;;;;4908064;29;20052;-42
2023/08/07 06:46:28;;;;;;;6.65;2.33;;;20.60;1.00;;;;;;4924801;29;20492;-42
2023/08/07 06:48:55;;;;;;;5.22;1.30;;;20.60;1.00;;;;;;4901331;29;20040;-42
2023/08/07 06:51:22;;;;;;;6.40;1.63;;;20.60;1.00;;;;;;4908150;29;20044;-41
2023/08/07 06:53:48;;;;;;;5.63;1.38;;;20.70;1.00;;;;;;4924386;29;20051;-42
2023/08/07 06:56:15;;;;;;;4.50;1.10;;;20.70;1.00;;;;;;4925016;29;20044;-41
2023/08/07 06:58:42;;;;;;;8.00;1.50;;;20.70;1.00;;;;;;4916626;29;20072;-42
2023/08/07 07:01:09;;;;;;;4.07;1.65;;;20.70;1.00;;;;;;4925317;29;20079;-42
2023/08/07 07:03:36;;;;;;;6.25;1.55;;;20.70;1.00;;;;;;4925058;29;20143;-42
2023/08/07 07:06:03;;;;;;;5.10;1.92;;;20.70;1.00;;;;;;4924642;29;20048;-41
2023/08/07 07:08:29;;;;;;;4.20;2.10;;;20.70;1.00;;;;;;4925373;29;20059;-42
2023/08/07 07:10:58;;;;;;;1.67;0.90;;;20.70;1.00;;;;;;4916972;29;20067;-42
2023/08/07 07:13:25;;;;;;;4.20;1.23;;;20.70;1.00;;;;;;4924752;29;20051;-43
2023/08/07 07:15:55;;;;;;;4.22;1.25;;;20.70;1.00;;;;;;4917196;29;20058;-42
2023/08/07 07:18:22;;;;;;;3.67;1.23;;;20.70;1.00;;;;;;4925313;29;20056;-42
2023/08/07 07:20:57;;;;;;;5.70;3.03;;;20.70;1.00;;;;;;4921331;29;20048;-42
2023/08/07 07:23:24;;;;;;;5.10;1.48;;;20.70;1.00;;;;;;4921225;29;20487;-42
2023/08/07 07:25:51;;;;;;;3.05;1.52;;;20.70;1.00;;;;;;4909109;29;20593;-43
2023/08/07 07:28:18;;;;;;;6.57;1.60;;;20.70;1.00;;;;;;4924674;29;20051;-42
2023/08/07 07:30:45;;;;;;;7.57;1.42;;;20.70;1.00;;;;;;4905712;29;20439;-42
2023/08/07 07:33:13;;;;;;;4.30;2.08;;;20.70;1.00;;;;;;4924599;29;20535;-42
2023/08/07 07:35:40;;;;;;;2.72;1.45;;;20.70;1.00;;;;;;4922811;29;20051;-41
2023/08/07 07:38:07;;;;;;;5.97;1.90;;;20.70;1.00;;;;;;4916305;29;20123;-42
2023/08/07 07:40:34;;;;;;;2.25;1.30;;;20.70;1.00;;;;;;4915346;29;20041;-42
2023/08/07 07:43:02;;;;;;;6.43;1.73;;;20.80;1.00;;;;;;4916740;29;20452;-42
2023/08/07 07:45:29;;;;;;;4.18;1.40;;;20.80;1.00;;;;;;4924155;29;20072;-43
2023/08/07 07:47:56;;;;;;;3.50;1.52;;;20.80;1.00;;;;;;4912728;29;20047;-42
2023/08/07 07:50:23;;;;;;;4.63;2.25;;;20.80;1.00;;;;;;4920085;29;20449;-46
2023/08/07 07:52:50;;;;;;;4.53;1.60;;;20.80;1.00;;;;;;4899986;29;20081;-41
2023/08/07 07:55:17;;;;;;;4.10;2.03;;;20.80;1.00;;;;;;4916289;29;20080;-42
2023/08/07 07:57:43;;;;;;;6.18;1.83;;;20.80;1.00;;;;;;4923198;29;20050;-44
2023/08/07 08:00:12;;;;;;;6.60;1.52;;;20.80;1.00;;;;;;4923120;29;20390;-42
2023/08/07 08:02:43;;;;;;;1.90;1.23;;;20.80;1.00;;;;;;4924415;29;20120;-41
2023/08/07 08:05:12;;;;;;;4.60;1.38;;;20.90;1.00;;;;;;4915695;29;20056;-42
2023/08/07 08:07:39;;;;;;;6.80;1.58;;;20.90;1.00;;;;;;4916142;29;20051;-43
2023/08/07 08:10:08;;;;;;;5.65;1.08;;;20.90;1.00;;;;;;4923769;29;20044;-41
2023/08/07 08:12:36;;;;;;;3.67;1.52;;;20.90;1.00;;;;;;4906870;29;20044;-42
2023/08/07 08:15:03;;;;;;;5.85;1.60;;;20.90;1.00;;;;;;4923693;29;20048;-43
2023/08/07 08:17:31;;;;;;;7.88;1.85;;;20.90;1.00;;;;;;4908559;29;20601;-42
2023/08/07 08:19:58;;;;;;;5.65;1.63;;;21.00;1.00;;;;;;4908187;29;20043;-42
2023/08/07 08:22:25;;;;;;;4.78;1.67;;;21.00;1.00;;;;;;4915587;29;20523;-42
2023/08/07 08:24:52;;;;;;;3.00;1.20;;;21.00;1.00;;;;;;4923284;29;20048;-45
2023/08/07 08:27:19;;;;;;;6.32;1.42;;;21.00;1.00;;;;;;4891126;29;20124;-42
2023/08/07 08:29:46;;;;;;;3.88;1.10;;;21.00;1.00;;;;;;4922980;29;20055;-42
2023/08/07 08:32:13;;;;;;;4.93;1.42;;;21.00;1.00;;;;;;4902772;29;20075;-42
2023/08/07 08:34:39;;;;;;;4.88;1.10;;;21.10;1.00;;;;;;4905648;29;20103;-46
2023/08/07 08:37:07;;;;;;;3.60;1.60;;;21.10;1.00;;;;;;4919399;29;20045;-43
2023/08/07 08:39:34;;;;;;;2.38;1.30;;;21.10;1.00;;;;;;4910963;29;20067;-44
2023/08/07 08:42:01;;;;;;;3.47;1.38;;;21.10;1.00;;;;;;4923177;29;20056;-43
2023/08/07 08:44:31;;;;;;;7.30;1.65;;;21.10;1.00;;;;;;4916000;29;20049;-42
2023/08/07 08:46:59;;;;;;;6.32;1.85;;;21.10;1.00;;;;;;4897576;29;20520;-43
2023/08/07 08:49:37;;;;;;;6.75;1.58;;;21.10;1.00;;;;;;4922107;29;20480;-42
2023/08/07 08:52:04;;;;;;;4.18;1.33;;;21.10;1.00;;;;;;4906073;29;20048;-41
2023/08/07 08:54:32;;;;;;;5.28;1.23;;;21.10;1.00;;;;;;4918083;29;20047;-42
2023/08/07 08:56:59;;;;;;;6.53;1.92;;;21.10;1.00;;;;;;4917397;29;20051;-44
2023/08/07 08:59:27;;;;;;;4.38;1.73;;;21.20;1.00;;;;;;4916558;29;20049;-48
2023/08/07 09:01:54;;;;;;;9.38;1.92;;;21.10;1.00;;;;;;4905568;29;20503;-42
2023/08/07 09:04:21;;;;;;;3.53;1.05;;;21.20;1.00;;;;;;4921653;29;20492;-46
2023/08/07 09:06:48;;;;;;;4.88;1.23;;;21.20;1.00;;;;;;4891485;29;20075;-43
2023/08/07 09:09:17;;;;;;;4.13;1.35;;;21.20;1.00;;;;;;4920197;29;20071;-42
2023/08/07 09:11:45;;;;;;;4.10;1.30;;;21.20;1.00;;;;;;4928555;29;20052;-42
2023/08/07 09:14:16;;;;;;;4.20;1.63;;;21.20;1.00;;;;;;4928339;29;20054;-44
2023/08/07 09:16:47;;;;;;;4.05;1.33;;;21.20;1.00;;;;;;4926805;29;20056;-41
2023/08/07 09:19:14;;;;;;;3.95;1.30;;;21.20;1.00;;;;;;4910685;29;20044;-41
2023/08/07 09:21:41;;;;;;;7.35;2.13;;;21.20;1.00;;;;;;4902793;29;20076;-42
2023/08/07 09:24:09;;;;;;;3.78;1.60;;;21.20;1.00;;;;;;4926331;29;20116;-41
2023/08/07 09:26:36;;;;;;;3.13;1.30;;;21.20;1.00;;;;;;4920256;29;20056;-43
2023/08/07 09:29:03;;;;;;;5.25;1.70;;;21.20;1.00;;;;;;4921048;29;20059;-42
2023/08/07 09:31:33;;;;;;;3.72;1.55;;;21.20;1.00;;;;;;4921842;29;20047;-42
2023/08/07 09:34:04;;;;;;;6.30;1.73;;;21.20;1.00;;;;;;4928864;29;20521;-43
2023/08/07 09:36:32;;;;;;;2.78;1.10;;;21.20;1.00;;;;;;4927722;29;20040;-45
2023/08/07 09:39:02;;;;;;;3.42;1.83;;;21.30;1.00;;;;;;4924614;29;20048;-43
2023/08/07 09:41:34;;;;;;;3.15;1.33;;;21.30;1.00;;;;;;4907899;29;20094;-41
2023/08/07 09:44:08;;;;;;;4.88;1.02;;;21.30;1.00;;;;;;4924743;29;20057;-42
2023/08/07 09:46:44;;;;;;;4.70;1.02;;;21.30;1.00;;;;;;4923313;29;20103;-43
2023/08/07 09:49:12;;;;;;;4.47;1.27;;;21.30;1.00;;;;;;4908757;29;20056;-42
2023/08/07 09:51:47;;;;;;;3.22;1.52;;;21.30;1.00;;;;;;4923555;29;20556;-43
2023/08/07 09:54:14;;;;;;;4.85;1.52;;;21.30;1.00;;;;;;4926942;29;20055;-43
2023/08/07 09:56:41;;;;;;;3.10;1.25;;;21.30;1.00;;;;;;4926178;29;20103;-42
2023/08/07 09:59:08;;;;;;;4.15;1.02;;;21.30;1.00;;;;;;4917078;29;20119;-47
2023/08/07 10:01:42;;;;;;;4.13;1.33;;;21.30;1.00;;;;;;4917148;29;20059;-44
2023/08/07 10:04:14;;;;;;;3.70;1.20;;;21.40;1.00;;;;;;4917211;29;20044;-45
2023/08/07 10:06:43;;;;;;;4.83;1.67;;;21.40;1.00;;;;;;4957379;23;20051;-45
2023/08/07 10:09:10;;;;;;;3.33;1.40;;;21.40;1.00;;;;;;4947617;29;20050;-42
2023/08/07 10:11:41;;;;;;;3.22;1.58;;;21.40;1.00;;;;;;4963562;29;20046;-42
2023/08/07 10:14:15;;;;;;;2.33;0.90;;;21.40;1.00;;;;;;4962332;29;20206;-43
2023/08/07 10:16:42;;;;;;;3.25;1.10;;;21.40;1.00;;;;;;4944151;29;20042;-44
2023/08/07 10:19:10;;;;;;;3.95;1.55;;;21.40;1.00;;;;;;4907956;29;20044;-42
2023/08/07 10:21:39;;;;;;;2.33;1.05;;;21.40;1.00;;;;;;4941809;29;20224;-44
2023/08/07 10:24:08;;;;;;;1.98;0.90;;;21.40;1.00;;;;;;4946216;29;20052;-42
2023/08/07 10:26:39;;;;;;;5.28;1.77;;;21.40;1.00;;;;;;4933561;29;20142;-42
2023/08/07 10:29:10;;;;;;;4.82;0.65;;;21.40;1.00;;;;;;4944568;29;20555;-44
2023/08/07 10:31:39;;;;;;;3.95;1.38;;;21.40;1.00;;;;;;4939199;29;20048;-43
2023/08/07 10:34:06;;;;;;;4.82;1.45;;;21.40;1.00;;;;;;4945303;29;20087;-42
2023/08/07 10:36:34;;;;;;;3.60;1.20;;;21.40;1.00;;;;;;4941717;29;20051;-41
2023/08/07 10:39:16;;;;;;;3.38;1.38;;;21.40;1.00;;;;;;4943688;29;20503;-42
2023/08/07 10:41:45;;;;;;;4.07;1.40;;;21.40;1.00;;;;;;4943486;29;20095;-41
2023/08/07 10:44:23;;;;;;;4.78;1.73;;;21.40;1.00;;;;;;4931871;29;20078;-41
2023/08/07 10:46:57;;;;;;;4.95;1.63;;;21.40;1.00;;;;;;4938019;29;20395;-41
2023/08/07 10:49:38;;;;;;;2.72;1.08;;;21.40;1.00;;;;;;4938460;29;20066;-41
2023/08/07 10:52:11;;;;;;;5.93;1.17;;;21.40;1.00;;;;;;4920918;29;20056;-42
2023/08/07 10:54:45;;;;;;;;;;;21.40;1.00;;;;;;4938656;29;20534;-41
2023/08/07 10:57:13;;;;;;;7.68;1.40;;;21.40;1.00;;;;;;4925597;29;20291;-43
2023/08/07 10:59:56;;;;;;;2.13;0.90;;;21.40;1.00;;;;;;4925092;29;20048;-45
2023/08/07 11:02:28;;;;;;;3.27;1.27;;;21.40;1.00;;;;;;4946986;29;20051;-42
2023/08/07 11:04:56;;;;;;;4.30;1.60;;;21.40;1.00;;;;;;4912232;29;20062;-44
2023/08/07 11:07:27;;;;;;;3.15;1.20;;;21.40;1.00;;;;;;4921111;29;20047;-42
2023/08/07 11:09:55;;;;;;;3.47;1.17;;;21.40;1.00;;;;;;4946240;29;20073;-41
2023/08/07 11:12:26;;;;;;;4.00;0.90;;;21.40;1.00;;;;;;4945975;29;20524;-41
2023/08/07 11:14:56;;;;;;;9.38;1.23;;;21.40;1.00;;;;;;4943207;29;20050;-43
2023/08/07 11:17:28;;;;;;;2.03;1.38;;;21.40;1.00;;;;;;4943388;29;20054;-46
2023/08/07 11:19:56;;;;;;;2.97;1.23;;;21.40;1.00;;;;;;4917091;29;20538;-41
2023/08/07 11:22:23;;;;;;;7.18;1.48;;;21.40;1.00;;;;;;4942814;29;20408;-44
2023/08/07 11:24:51;;;;;;;3.15;1.27;;;21.40;1.00;;;;;;4933992;29;20135;-46
2023/08/07 11:27:18;;;;;;;4.65;1.02;;;21.50;1.00;;;;;;4942123;29;20507;-44
2023/08/07 11:29:48;;;;;;;2.78;1.17;;;21.50;1.00;;;;;;4942604;29;20087;-44
2023/08/07 11:32:15;;;;;;;5.18;1.42;;;21.50;1.00;;;;;;4933515;29;20084;-41
2023/08/07 11:34:49;;;;;;;8.35;1.58;;;21.50;1.00;;;;;;4924315;29;20059;-42
2023/08/07 11:37:17;;;;;;;3.45;1.45;;;21.50;1.00;;;;;;4927771;29;20039;-41
2023/08/07 11:39:44;;;;;;;4.35;1.52;;;21.50;1.00;;;;;;4944769;29;20057;-41
2023/08/07 11:42:12;;;;;;;5.07;1.30;;;21.50;1.00;;;;;;4944991;29;20079;-41
2023/08/07 11:44:40;;;;;;;2.95;1.00;;;21.50;1.00;;;;;;4922019;29;20107;-42
2023/08/07 11:47:08;;;;;;;4.25;1.40;;;21.50;1.00;;;;;;4912148;29;20051;-45
2023/08/07 11:49:36;;;;;;;3.30;1.63;;;21.50;1.00;;;;;;4939617;29;20056;-42
2023/08/07 11:52:03;;;;;;;6.65;2.45;;;21.50;1.00;;;;;;4942982;29;20031;-41
2023/08/07 11:54:30;;;;;;;4.00;1.17;;;21.50;1.00;;;;;;4942758;29;20039;-42
2023/08/07 11:56:57;;;;;;;2.40;1.17;;;21.50;1.00;;;;;;4942549;29;20055;-41
2023/08/07 11:59:26;;;;;;;4.35;1.15;;;21.50;1.00;;;;;;4935365;29;20046;-42
2023/08/07 12:01:53;;;;;;;2.40;0.93;;;21.50;1.00;;;;;;4926438;29;20071;-41
2023/08/07 12:04:20;;;;;;;3.38;1.25;;;21.50;1.00;;;;;;4927887;29;20106;-41
2023/08/07 12:06:56;;;;;;;5.35;1.83;;;21.50;1.00;;;;;;4941836;29;20114;-42
2023/08/07 12:09:25;;;;;;;4.97;1.30;;;21.50;1.00;;;;;;4942368;29;20043;-42
2023/08/07 12:11:58;;;;;;;7.82;1.70;;;21.50;1.00;;;;;;4942911;29;20508;-41
2023/08/07 12:14:31;;;;;;;2.63;1.27;;;21.50;1.00;;;;;;4943132;29;20039;-41
2023/08/07 12:17:01;;;;;;;7.00;1.58;;;21.50;1.00;;;;;;4925102;29;20044;-41
2023/08/07 12:19:43;;;;;;;5.35;1.48;;;21.50;1.00;;;;;;4941560;29;20066;-42
2023/08/07 12:22:11;;;;;;;6.32;1.42;;;21.50;1.00;;;;;;4941499;29;20031;-44
2023/08/07 12:24:37;;;;;;;5.45;1.88;;;21.50;1.00;;;;;;4940532;29;20412;-43
2023/08/07 12:27:05;;;;;;;4.18;1.40;;;21.50;1.00;;;;;;4941421;29;20107;-43
2023/08/07 12:29:32;;;;;;;2.65;1.02;;;21.50;1.00;;;;;;4940168;29;20099;-41
2023/08/07 12:32:01;;;;;;;4.35;1.08;;;21.50;1.00;;;;;;4923917;29;20118;-45
2023/08/07 12:34:28;;;;;;;4.05;1.65;;;21.50;1.00;;;;;;4942914;29;20059;-42
2023/08/07 12:36:57;;;;;;;4.32;1.15;;;21.50;1.00;;;;;;4934908;29;20066;-42
2023/08/07 12:39:25;;;;;;;2.88;1.63;;;21.50;1.00;;;;;;4930028;29;20118;-44
2023/08/07 12:42:11;;;;;;;2.40;1.00;;;21.50;1.00;;;;;;4941590;29;20043;-41
2023/08/07 12:44:43;;;;;;;3.42;1.25;;;21.50;1.00;;;;;;4937361;29;20043;-42
2023/08/07 12:47:10;;;;;;;3.45;1.23;;;21.50;1.00;;;;;;4934465;29;20039;-41
2023/08/07 12:49:36;;;;;;;2.28;1.23;;;21.50;1.00;;;;;;4942732;29;20039;-42
2023/08/07 12:52:04;;;;;;;3.42;1.58;;;21.50;1.00;;;;;;4942494;29;20078;-42
2023/08/07 12:54:31;;;;;;;4.18;1.73;;;21.50;1.00;;;;;;4933904;29;20075;-44
2023/08/07 12:56:58;;;;;;;6.57;1.27;;;21.50;1.00;;;;;;4924900;29;20111;-43
2023/08/07 12:59:25;;;;;;;5.13;1.42;;;21.60;1.00;;;;;;4908316;29;20050;-42
2023/08/07 13:01:53;;;;;;;5.13;1.75;;;21.50;1.00;;;;;;4941224;29;20049;-42
2023/08/07 13:04:20;;;;;;;5.30;1.00;;;21.60;1.00;;;;;;4941110;29;20051;-42